Time;durP1;ratioP1;P1;durP2;ratioP2;P2;SDS_P1;SDS_P2;PMS_P1;PMS_P2;Temp;Humidity;BMP_temperature;BMP_pressure;BME280_temperature;BME280_humidity;BME280_pressure;Samples;Min_cycle;Max_cycle;Signal;HPM_P1;HPM_P2
2022/11/15 00:00:09;;;;;;;4.65;3.20;;;9.90;99.90;;;;;;4953740;28;20413;-70
2022/11/15 00:02:35;;;;;;;4.13;2.92;;;9.90;99.90;;;;;;4953526;29;20386;-70
2022/11/15 00:05:00;;;;;;;3.50;2.72;;;10.00;99.90;;;;;;4953743;29;20401;-70
2022/11/15 00:07:26;;;;;;;3.63;2.80;;;10.00;99.90;;;;;;4953571;29;20394;-70
2022/11/15 00:09:51;;;;;;;4.13;3.00;;;10.00;99.90;;;;;;4951449;28;20769;-70
2022/11/15 00:12:17;;;;;;;3.90;2.80;;;9.90;99.90;;;;;;4952211;29;20442;-70
2022/11/15 00:14:42;;;;;;;3.00;2.70;;;9.90;99.90;;;;;;4953236;28;20425;-70
2022/11/15 00:17:08;;;;;;;3.00;2.73;;;9.90;99.90;;;;;;4953662;28;20402;-70
2022/11/15 00:19:33;;;;;;;2.50;2.30;;;10.00;99.90;;;;;;4953364;28;20409;-71
2022/11/15 00:21:59;;;;;;;4.50;2.80;;;10.10;99.90;;;;;;4953644;28;20472;-70
2022/11/15 00:24:24;;;;;;;4.28;3.00;;;10.10;99.90;;;;;;4952823;28;20905;-70
2022/11/15 00:26:50;;;;;;;4.60;3.30;;;10.10;99.90;;;;;;4953448;28;20401;-70
2022/11/15 00:29:15;;;;;;;3.80;2.97;;;10.00;99.90;;;;;;4953366;28;20385;-71
2022/11/15 00:31:41;;;;;;;3.10;2.80;;;10.00;99.90;;;;;;4953367;28;20939;-70
2022/11/15 00:34:06;;;;;;;3.53;2.90;;;10.00;99.90;;;;;;4974475;28;20402;-70
2022/11/15 00:36:35;;;;;;;4.95;3.00;;;10.00;99.90;;;;;;4953149;29;20398;-70
2022/11/15 00:39:00;;;;;;;3.25;2.95;;;10.00;99.90;;;;;;4953179;29;20429;-70
2022/11/15 00:41:26;;;;;;;3.33;3.00;;;10.10;99.90;;;;;;4953145;29;20849;-70
2022/11/15 00:43:51;;;;;;;5.00;3.00;;;10.10;99.90;;;;;;4952864;29;20701;-70
2022/11/15 00:46:17;;;;;;;3.50;2.80;;;10.00;99.90;;;;;;4953163;29;20485;-70
2022/11/15 00:48:43;;;;;;;3.20;2.90;;;10.10;99.90;;;;;;4952844;29;20402;-71
2022/11/15 00:51:08;;;;;;;3.13;2.90;;;10.10;99.90;;;;;;4952832;29;20414;-70
2022/11/15 00:53:34;;;;;;;3.90;2.67;;;10.00;99.90;;;;;;4952598;29;20456;-70
2022/11/15 00:55:59;;;;;;;2.90;2.70;;;10.00;99.90;;;;;;4952555;28;20751;-70
2022/11/15 00:58:25;;;;;;;3.17;2.87;;;10.00;99.90;;;;;;4952792;29;20394;-70
2022/11/15 01:00:51;;;;;;;3.30;3.00;;;10.00;99.90;;;;;;4952771;29;20414;-70
2022/11/15 01:03:16;;;;;;;8.15;3.05;;;10.00;99.90;;;;;;4952411;29;20417;-70
2022/11/15 01:05:42;;;;;;;3.58;2.60;;;10.20;99.90;;;;;;4952693;29;20444;-70
2022/11/15 01:08:15;;;;;;;3.20;2.90;;;10.20;99.90;;;;;;4953013;29;20525;-70
2022/11/15 01:10:41;;;;;;;2.80;2.60;;;10.30;99.90;;;;;;4952620;29;20390;-70
2022/11/15 01:13:07;;;;;;;3.50;2.67;;;10.30;99.90;;;;;;4952451;29;20464;-70
2022/11/15 01:15:32;;;;;;;2.87;2.40;;;10.40;99.90;;;;;;4952723;29;20521;-70
2022/11/15 01:17:58;;;;;;;2.70;2.50;;;10.50;99.90;;;;;;4952688;29;20808;-71
2022/11/15 01:20:23;;;;;;;2.75;2.30;;;10.50;99.90;;;;;;4952360;29;20436;-70
2022/11/15 01:22:49;;;;;;;8.35;3.15;;;10.60;99.90;;;;;;4952249;29;20881;-70
2022/11/15 01:25:14;;;;;;;3.50;2.40;;;10.70;99.90;;;;;;4952143;29;20405;-71
2022/11/15 01:27:40;;;;;;;3.27;2.60;;;10.70;99.90;;;;;;4952532;29;20398;-70
2022/11/15 01:30:06;;;;;;;2.43;2.23;;;10.60;99.90;;;;;;4952383;29;20402;-70
2022/11/15 01:32:32;;;;;;;4.17;2.30;;;10.70;99.90;;;;;;4952076;29;20460;-70
2022/11/15 01:34:57;;;;;;;4.23;2.43;;;10.70;99.90;;;;;;4952289;29;20428;-70
2022/11/15 01:37:23;;;;;;;2.40;2.20;;;10.70;99.90;;;;;;4952370;29;20398;-70
2022/11/15 01:39:48;;;;;;;2.50;2.30;;;10.80;99.90;;;;;;4950875;29;20425;-71
2022/11/15 01:42:14;;;;;;;3.23;2.53;;;10.70;99.90;;;;;;4952386;29;20730;-70
2022/11/15 01:44:50;;;;;;;4.20;2.45;;;10.60;99.90;;;;;;4952016;29;20877;-70
2022/11/15 01:47:27;;;;;;;2.70;2.20;;;10.60;99.90;;;;;;4952305;29;20385;-70
2022/11/15 01:50:00;;;;;;;4.25;2.33;;;10.70;99.90;;;;;;4951993;29;20402;-70
2022/11/15 01:52:29;;;;;;;4.97;2.80;;;10.80;99.90;;;;;;4952304;29;20421;-70
2022/11/15 01:55:13;;;;;;;2.75;2.30;;;10.70;99.90;;;;;;4952066;29;20421;-70
2022/11/15 01:57:40;;;;;;;2.50;2.30;;;10.70;99.90;;;;;;4952168;29;20390;-70
2022/11/15 02:00:07;;;;;;;2.63;2.10;;;10.80;99.90;;;;;;4952010;29;20473;-71
2022/11/15 02:02:35;;;;;;;4.35;2.08;;;10.80;99.90;;;;;;4951859;29;20398;-70
2022/11/15 02:05:00;;;;;;;3.70;2.40;;;10.80;99.90;;;;;;4952138;29;20390;-70
2022/11/15 02:07:28;;;;;;;2.40;2.20;;;10.90;99.90;;;;;;4954348;28;20397;-71
2022/11/15 02:09:54;;;;;;;2.50;1.90;;;10.80;99.90;;;;;;4953589;29;20892;-70
2022/11/15 02:12:21;;;;;;;2.15;1.95;;;10.80;99.90;;;;;;4954825;29;20409;-70
2022/11/15 02:14:52;;;;;;;2.40;2.20;;;10.80;99.90;;;;;;4955476;28;20416;-70
2022/11/15 02:17:25;;;;;;;2.70;2.50;;;11.00;99.90;;;;;;4955920;28;20398;-71
2022/11/15 02:20:36;;;;;;;2.72;2.40;;;11.00;99.90;;;;;;4955552;28;20919;-71
2022/11/15 02:23:34;;;;;;;1.80;1.70;;;11.10;99.90;;;;;;4955339;28;20397;-70
2022/11/15 02:26:35;;;;;;;1.80;1.70;;;11.20;99.90;;;;;;4955197;29;20409;-70
2022/11/15 02:29:15;;;;;;;2.80;1.90;;;11.20;99.90;;;;;;4955642;28;20398;-71
2022/11/15 02:31:50;;;;;;;3.72;2.08;;;11.30;99.90;;;;;;4955531;28;20422;-70
2022/11/15 02:34:34;;;;;;;2.45;1.80;;;11.30;99.90;;;;;;4955103;28;20396;-71
2022/11/15 02:37:06;;;;;;;1.87;1.60;;;11.30;99.90;;;;;;4955454;29;20445;-70
2022/11/15 02:40:07;;;;;;;2.70;1.77;;;11.30;99.90;;;;;;4955220;28;20388;-70
2022/11/15 02:45:39;;;;;;;1.80;1.70;;;11.30;99.90;;;;;;4955191;29;20425;-70
2022/11/15 02:48:06;;;;;;;2.83;1.58;;;11.20;99.90;;;;;;4955363;29;20393;-70
2022/11/15 02:50:33;;;;;;;1.60;1.50;;;11.20;99.90;;;;;;4954903;28;20413;-71
2022/11/15 02:52:59;;;;;;;2.23;1.57;;;11.30;99.90;;;;;;4954903;28;20394;-71
2022/11/15 02:55:33;;;;;;;2.13;1.70;;;11.40;99.90;;;;;;4954901;28;20928;-70
2022/11/15 02:58:28;;;;;;;2.08;1.50;;;11.40;99.90;;;;;;4955274;29;20386;-69
2022/11/15 03:01:05;;;;;;;2.70;1.70;;;11.30;99.90;;;;;;4954879;28;20410;-70
2022/11/15 03:03:44;;;;;;;1.88;1.70;;;11.30;99.90;;;;;;4954659;29;20385;-69
2022/11/15 03:06:24;;;;;;;3.28;1.63;;;11.20;99.90;;;;;;4954804;28;20784;-69
2022/11/15 03:09:03;;;;;;;1.60;1.50;;;11.20;99.90;;;;;;4954751;28;20382;-69
2022/11/15 03:11:32;;;;;;;2.20;1.20;;;11.30;99.90;;;;;;4953411;29;20393;-69
2022/11/15 03:14:23;;;;;;;1.85;1.50;;;11.30;99.90;;;;;;4954343;28;20397;-69
2022/11/15 03:16:54;;;;;;;3.83;1.75;;;11.30;99.90;;;;;;4954693;28;20402;-69
2022/11/15 03:19:36;;;;;;;1.98;1.75;;;11.30;99.90;;;;;;4949000;28;20913;-70
2022/11/15 03:22:06;;;;;;;1.70;1.60;;;11.50;99.90;;;;;;4954479;29;20774;-69
2022/11/15 03:24:36;;;;;;;1.90;1.40;;;11.40;99.90;;;;;;4954325;28;20413;-71
2022/11/15 03:27:02;;;;;;;2.10;1.33;;;11.30;99.90;;;;;;4954518;28;20390;-71
2022/11/15 03:29:37;;;;;;;2.78;1.60;;;11.40;99.90;;;;;;4953167;28;20397;-68
2022/11/15 03:32:13;;;;;;;1.48;1.20;;;11.40;99.90;;;;;;4952466;28;20413;-69
2022/11/15 03:34:45;;;;;;;2.40;1.47;;;11.30;99.90;;;;;;4949991;29;20412;-69
2022/11/15 03:37:15;;;;;;;1.90;1.50;;;11.40;99.90;;;;;;4954202;28;20781;-69
2022/11/15 03:39:42;;;;;;;1.60;1.50;;;11.40;99.90;;;;;;4954213;28;20853;-69
2022/11/15 03:42:29;;;;;;;1.60;1.37;;;11.40;99.90;;;;;;4954307;28;20393;-69
2022/11/15 03:45:19;;;;;;;2.63;1.48;;;11.30;99.90;;;;;;4954249;28;20429;-70
2022/11/15 03:47:48;;;;;;;2.95;1.80;;;11.30;99.90;;;;;;4954348;28;20394;-70
2022/11/15 03:50:20;;;;;;;1.60;1.50;;;11.40;99.90;;;;;;4954125;28;20484;-70
2022/11/15 03:52:48;;;;;;;1.80;1.50;;;11.30;99.90;;;;;;4953957;28;20386;-70
2022/11/15 03:55:17;;;;;;;2.40;1.50;;;11.30;99.90;;;;;;4954456;28;20880;-70
2022/11/15 03:57:43;;;;;;;2.20;1.52;;;11.40;99.90;;;;;;4954111;28;20398;-70
2022/11/15 04:00:09;;;;;;;1.50;1.40;;;11.30;99.90;;;;;;4953836;28;20440;-70
2022/11/15 04:02:34;;;;;;;1.90;1.50;;;11.30;99.90;;;;;;4953607;28;20408;-70
2022/11/15 04:05:00;;;;;;;3.00;1.90;;;11.40;99.90;;;;;;4953881;28;20861;-70
2022/11/15 04:07:25;;;;;;;1.50;1.40;;;11.40;99.90;;;;;;4953816;28;20417;-70
2022/11/15 04:10:03;;;;;;;3.88;2.40;;;11.40;99.90;;;;;;4951699;28;20778;-70
2022/11/15 04:12:33;;;;;;;1.80;1.60;;;11.40;99.90;;;;;;4953380;28;20398;-70
2022/11/15 04:15:09;;;;;;;2.20;1.70;;;11.30;99.90;;;;;;4953636;28;20766;-71
2022/11/15 04:17:42;;;;;;;2.40;1.70;;;11.30;99.90;;;;;;4953525;28;20465;-70
2022/11/15 04:26:10;;;;;;;2.20;1.40;;;11.20;99.90;;;;;;4953601;29;20394;-70
2022/11/15 04:29:33;;;;;;;2.50;1.70;;;11.20;99.90;;;;;;4953313;28;20402;-70
2022/11/15 04:31:21;;;;;;;1.90;1.70;;;11.10;99.90;;;;;;4953153;28;20398;-70
2022/11/15 04:33:46;;;;;;;1.60;1.50;;;11.10;99.90;;;;;;4953185;28;20402;-70
2022/11/15 04:38:56;;;;;;;2.45;1.92;;;11.20;99.90;;;;;;4953402;28;20389;-70
2022/11/15 04:41:21;;;;;;;2.10;2.00;;;11.20;99.90;;;;;;4953193;29;20421;-70
2022/11/15 04:43:47;;;;;;;2.20;2.00;;;11.20;99.90;;;;;;4953043;29;20398;-70
2022/11/15 04:46:12;;;;;;;2.20;2.00;;;11.00;99.90;;;;;;4953161;29;20417;-70
2022/11/15 04:48:38;;;;;;;2.33;1.80;;;11.00;99.90;;;;;;4953165;28;20390;-70
2022/11/15 04:51:04;;;;;;;2.80;2.10;;;10.90;99.90;;;;;;4951679;29;20410;-70
2022/11/15 04:53:29;;;;;;;2.60;2.37;;;11.00;99.90;;;;;;4952874;29;20872;-70
2022/11/15 04:55:55;;;;;;;2.50;2.30;;;11.00;99.90;;;;;;4953158;28;20764;-70
2022/11/15 04:58:20;;;;;;;2.60;2.40;;;10.90;99.90;;;;;;4953049;29;20393;-70
2022/11/15 05:00:46;;;;;;;2.30;2.10;;;10.80;99.90;;;;;;4952254;28;20495;-70
2022/11/15 05:05:57;;;;;;;3.28;2.38;;;10.50;99.90;;;;;;4953338;29;20409;-70
2022/11/15 05:08:26;;;;;;;3.50;2.30;;;10.60;99.90;;;;;;4952270;28;20501;-70
2022/11/15 05:10:51;;;;;;;2.58;2.38;;;10.80;99.90;;;;;;4952286;28;20878;-71
2022/11/15 05:13:17;;;;;;;2.83;2.40;;;10.60;99.90;;;;;;4952230;29;20394;-71
2022/11/15 05:15:43;;;;;;;2.50;2.30;;;10.60;99.90;;;;;;4951242;28;20401;-70
2022/11/15 05:18:09;;;;;;;2.80;2.20;;;10.50;99.90;;;;;;4952306;29;20402;-71
2022/11/15 05:20:35;;;;;;;2.30;2.10;;;10.40;99.90;;;;;;4951047;28;20425;-70
2022/11/15 05:23:00;;;;;;;3.40;2.88;;;10.30;99.90;;;;;;4952285;29;20907;-70
2022/11/15 05:25:26;;;;;;;5.07;3.13;;;10.40;99.90;;;;;;4951636;28;20418;-71
2022/11/15 05:27:52;;;;;;;4.40;2.90;;;10.60;99.90;;;;;;4952437;29;20405;-70
2022/11/15 05:30:17;;;;;;;3.42;2.90;;;10.50;99.90;;;;;;4952029;28;20394;-70
2022/11/15 05:32:44;;;;;;;3.27;2.80;;;10.50;99.90;;;;;;4948317;29;20929;-71
2022/11/15 05:35:15;;;;;;;3.25;2.95;;;10.40;99.90;;;;;;4948454;28;20414;-70
2022/11/15 05:37:41;;;;;;;3.53;3.22;;;10.40;99.90;;;;;;4950911;29;20758;-70
2022/11/15 05:40:07;;;;;;;3.10;2.90;;;10.40;99.90;;;;;;4962618;28;20432;-71
2022/11/15 05:42:33;;;;;;;3.83;3.05;;;10.30;99.90;;;;;;4944296;28;20394;-70
2022/11/15 05:45:01;;;;;;;3.43;2.90;;;10.20;99.90;;;;;;4950195;28;20416;-70
2022/11/15 05:47:29;;;;;;;3.70;3.20;;;10.10;99.90;;;;;;4950024;28;20414;-71
2022/11/15 05:49:55;;;;;;;3.17;2.80;;;10.20;99.90;;;;;;4942626;28;20520;-70
2022/11/15 05:52:25;;;;;;;3.50;3.20;;;10.20;99.90;;;;;;4948032;29;20488;-70
2022/11/15 05:54:52;;;;;;;3.30;3.00;;;10.00;99.90;;;;;;4946106;29;20776;-70
2022/11/15 05:57:17;;;;;;;3.50;2.90;;;10.10;99.90;;;;;;4945596;29;20859;-70
2022/11/15 05:59:43;;;;;;;3.40;3.10;;;10.00;99.90;;;;;;4944862;28;20432;-70
2022/11/15 06:02:10;;;;;;;3.60;2.87;;;10.10;99.90;;;;;;4943586;29;20413;-70
2022/11/15 06:04:35;;;;;;;6.20;3.38;;;10.00;99.90;;;;;;4948072;29;20912;-70
2022/11/15 06:07:02;;;;;;;3.67;3.10;;;10.00;99.90;;;;;;4947608;29;20413;-70
2022/11/15 06:09:27;;;;;;;3.10;2.80;;;9.90;99.90;;;;;;4946988;28;20493;-70
2022/11/15 06:11:53;;;;;;;4.20;3.40;;;9.90;99.90;;;;;;4948352;29;20466;-70
2022/11/15 06:14:18;;;;;;;3.30;3.00;;;9.90;99.90;;;;;;4948597;29;20401;-70
2022/11/15 06:16:44;;;;;;;4.87;3.03;;;9.80;99.90;;;;;;4942966;28;20833;-69
2022/11/15 06:19:09;;;;;;;3.30;3.00;;;9.80;99.90;;;;;;4942576;28;21078;-71
2022/11/15 06:21:35;;;;;;;3.53;3.22;;;9.80;99.90;;;;;;4947575;28;20467;-70
2022/11/15 06:24:01;;;;;;;3.80;3.30;;;9.70;99.90;;;;;;4942709;28;20425;-69
2022/11/15 06:26:26;;;;;;;4.40;3.05;;;9.80;99.90;;;;;;4947288;28;20449;-69
2022/11/15 06:28:52;;;;;;;3.30;2.70;;;9.70;99.90;;;;;;4947303;28;20469;-69
2022/11/15 06:31:17;;;;;;;4.90;2.90;;;9.80;99.90;;;;;;4949450;29;20430;-69
2022/11/15 06:33:43;;;;;;;4.50;2.40;;;9.80;99.90;;;;;;4949058;28;20413;-69
2022/11/15 06:36:16;;;;;;;3.28;2.97;;;9.80;99.90;;;;;;4948667;29;20412;-69
2022/11/15 06:38:41;;;;;;;3.53;3.22;;;9.90;99.90;;;;;;4950312;28;20436;-69
2022/11/15 06:41:09;;;;;;;4.50;2.95;;;9.80;99.90;;;;;;4950882;29;20445;-69
2022/11/15 06:43:36;;;;;;;4.10;3.13;;;9.90;99.90;;;;;;4950259;29;20418;-69
2022/11/15 06:46:02;;;;;;;3.45;3.13;;;9.80;99.90;;;;;;4943101;28;20404;-69
2022/11/15 06:48:30;;;;;;;3.00;2.70;;;9.90;99.90;;;;;;4941086;29;20397;-69
2022/11/15 06:50:58;;;;;;;4.63;3.33;;;9.90;99.90;;;;;;4943222;29;20431;-69
2022/11/15 06:53:24;;;;;;;5.00;3.75;;;10.00;99.90;;;;;;4952322;28;20441;-69
2022/11/15 06:55:49;;;;;;;3.75;3.20;;;10.00;99.90;;;;;;4954212;28;20438;-69
2022/11/15 06:58:15;;;;;;;3.60;3.30;;;10.10;99.90;;;;;;4952109;29;20505;-69
2022/11/15 07:00:41;;;;;;;3.70;3.40;;;10.00;99.90;;;;;;4946328;29;20459;-69
2022/11/15 07:03:07;;;;;;;3.67;3.35;;;10.10;99.90;;;;;;4946566;28;20398;-70
2022/11/15 07:05:33;;;;;;;3.90;3.60;;;10.10;99.90;;;;;;4954827;28;20389;-69
2022/11/15 07:07:59;;;;;;;4.40;4.00;;;10.10;99.90;;;;;;4949649;28;20445;-69
2022/11/15 07:10:25;;;;;;;3.95;3.55;;;10.20;99.90;;;;;;4952059;28;20410;-69
2022/11/15 07:12:52;;;;;;;4.00;3.60;;;10.20;99.90;;;;;;4950872;29;20852;-69
2022/11/15 07:15:19;;;;;;;3.53;3.05;;;10.20;99.90;;;;;;4951562;29;20425;-69
2022/11/15 07:17:45;;;;;;;4.00;3.60;;;10.10;99.90;;;;;;4952702;28;20418;-69
2022/11/15 07:20:13;;;;;;;5.85;3.72;;;10.10;99.90;;;;;;4952667;28;20445;-70
2022/11/15 07:22:39;;;;;;;3.63;3.33;;;10.10;99.90;;;;;;4951626;29;20427;-69
2022/11/15 07:25:04;;;;;;;3.60;3.30;;;10.10;99.90;;;;;;4950382;29;20405;-70
2022/11/15 07:27:30;;;;;;;3.40;3.10;;;10.20;99.90;;;;;;4951996;29;20629;-70
2022/11/15 07:29:56;;;;;;;3.63;3.25;;;10.30;99.90;;;;;;4954284;28;20394;-70
2022/11/15 07:32:21;;;;;;;4.53;3.83;;;10.30;99.90;;;;;;4954248;28;20410;-70
2022/11/15 07:34:47;;;;;;;4.17;3.70;;;10.30;99.90;;;;;;4951139;29;20441;-70
2022/11/15 07:37:12;;;;;;;6.10;4.00;;;10.40;99.90;;;;;;4954113;28;20393;-71
2022/11/15 07:39:38;;;;;;;4.30;3.90;;;10.40;99.90;;;;;;4968659;28;20435;-70
2022/11/15 07:44:50;;;;;;;4.30;3.90;;;10.40;99.90;;;;;;4954480;29;20466;-70
2022/11/15 07:47:22;;;;;;;5.00;3.90;;;10.40;99.90;;;;;;4953726;28;20824;-71
2022/11/15 07:49:47;;;;;;;4.55;3.80;;;10.40;99.90;;;;;;4953920;28;20401;-70
2022/11/15 07:52:13;;;;;;;4.10;3.70;;;10.50;99.90;;;;;;4954315;28;20396;-70
2022/11/15 07:54:39;;;;;;;4.35;3.95;;;10.50;99.90;;;;;;4953578;28;20413;-70
2022/11/15 07:57:06;;;;;;;4.47;3.90;;;10.50;99.90;;;;;;4954456;28;20799;-70
2022/11/15 07:59:32;;;;;;;4.78;3.80;;;10.50;99.90;;;;;;4953993;28;20393;-70
2022/11/15 08:01:58;;;;;;;5.43;3.67;;;10.60;99.90;;;;;;4954116;28;20943;-70
2022/11/15 08:04:23;;;;;;;4.47;4.07;;;10.60;99.90;;;;;;4952592;28;20390;-70
2022/11/15 08:06:49;;;;;;;4.30;3.70;;;10.80;99.90;;;;;;4954063;28;20445;-70
2022/11/15 08:09:14;;;;;;;4.60;3.10;;;10.80;99.90;;;;;;4953774;28;20394;-70
2022/11/15 08:11:40;;;;;;;3.20;2.90;;;10.80;99.90;;;;;;4954036;28;20397;-70
2022/11/15 08:14:05;;;;;;;4.57;3.20;;;11.00;99.90;;;;;;4953718;28;20389;-70
2022/11/15 08:16:31;;;;;;;3.33;3.03;;;11.00;99.90;;;;;;4953999;28;20394;-70
2022/11/15 08:18:56;;;;;;;4.40;3.53;;;11.00;99.90;;;;;;4953808;28;20468;-70
2022/11/15 08:21:22;;;;;;;4.13;3.45;;;11.00;99.90;;;;;;4953781;28;20912;-70
2022/11/15 08:23:48;;;;;;;4.10;3.80;;;11.00;99.90;;;;;;4953237;28;20386;-70
2022/11/15 08:26:14;;;;;;;4.60;4.20;;;11.00;99.90;;;;;;4953789;28;20429;-70
2022/11/15 08:28:40;;;;;;;4.07;3.00;;;11.00;99.90;;;;;;4953504;28;20386;-70
2022/11/15 08:31:05;;;;;;;4.05;3.42;;;11.10;99.90;;;;;;4953706;28;20907;-70
2022/11/15 08:33:32;;;;;;;4.20;3.10;;;11.10;99.90;;;;;;4953241;28;20491;-70
2022/11/15 08:35:59;;;;;;;3.40;3.10;;;11.10;99.90;;;;;;4953502;29;20421;-70
2022/11/15 08:38:25;;;;;;;4.90;3.22;;;11.20;99.90;;;;;;4953397;28;20417;-70
2022/11/15 08:40:54;;;;;;;4.13;3.72;;;11.20;99.90;;;;;;4953428;28;20410;-70
2022/11/15 08:43:19;;;;;;;5.10;3.77;;;11.40;99.90;;;;;;4951922;29;20478;-70
2022/11/15 08:45:45;;;;;;;6.20;4.30;;;11.30;99.90;;;;;;4953329;29;20392;-70
2022/11/15 08:48:11;;;;;;;4.82;3.80;;;11.20;99.90;;;;;;4953441;28;20422;-70
2022/11/15 08:50:37;;;;;;;7.87;3.80;;;11.30;99.90;;;;;;4953194;28;20463;-70
2022/11/15 08:53:08;;;;;;;3.80;3.50;;;11.30;99.90;;;;;;4952703;28;20393;-70
2022/11/15 08:55:37;;;;;;;3.30;3.00;;;11.20;99.90;;;;;;4953264;29;20810;-70
2022/11/15 08:58:03;;;;;;;5.40;3.28;;;11.30;99.90;;;;;;4953517;28;20394;-71
2022/11/15 09:00:29;;;;;;;3.72;2.95;;;11.30;99.90;;;;;;4953144;28;20418;-70
2022/11/15 09:02:54;;;;;;;3.40;3.07;;;11.30;99.90;;;;;;4952645;28;20456;-70
2022/11/15 09:05:20;;;;;;;4.10;3.42;;;11.30;99.90;;;;;;4953021;28;20393;-69
2022/11/15 09:07:45;;;;;;;2.40;2.20;;;11.30;99.90;;;;;;4953041;28;20954;-70
2022/11/15 09:10:11;;;;;;;4.77;2.57;;;11.40;99.90;;;;;;4952880;28;20987;-69
2022/11/15 09:12:37;;;;;;;3.20;2.60;;;11.50;99.90;;;;;;4952809;28;20394;-70
2022/11/15 09:15:03;;;;;;;2.55;2.35;;;11.50;99.90;;;;;;4952548;28;20437;-70
2022/11/15 09:17:29;;;;;;;2.03;1.92;;;11.60;99.90;;;;;;4952661;28;20394;-69
2022/11/15 09:19:54;;;;;;;2.50;2.30;;;11.60;99.90;;;;;;4952951;28;20425;-70
2022/11/15 09:22:20;;;;;;;3.20;2.10;;;11.70;99.90;;;;;;4952771;28;20881;-70
2022/11/15 09:24:45;;;;;;;2.40;2.20;;;11.80;99.90;;;;;;4952507;28;20393;-70
2022/11/15 09:27:12;;;;;;;2.60;2.38;;;11.90;99.90;;;;;;4952687;28;20390;-69
2022/11/15 09:29:37;;;;;;;3.03;2.73;;;11.90;99.90;;;;;;4952557;28;20386;-69
2022/11/15 09:32:03;;;;;;;2.73;2.47;;;11.90;99.90;;;;;;4952662;28;20397;-70
2022/11/15 09:34:28;;;;;;;5.55;2.60;;;11.90;99.90;;;;;;4952248;28;20393;-70
2022/11/15 09:36:54;;;;;;;2.67;2.47;;;11.90;99.90;;;;;;4952630;29;20389;-70
2022/11/15 09:39:20;;;;;;;4.90;2.70;;;11.90;99.90;;;;;;4952528;28;20401;-70
2022/11/15 09:41:57;;;;;;;3.40;3.10;;;11.90;99.90;;;;;;4952433;28;20418;-69
2022/11/15 09:44:43;;;;;;;3.35;3.05;;;12.00;99.90;;;;;;4952260;28;20386;-70
2022/11/15 09:47:36;;;;;;;6.00;3.17;;;12.10;99.90;;;;;;4952683;28;20398;-70
2022/11/15 09:50:09;;;;;;;3.83;3.45;;;12.00;99.90;;;;;;4952567;28;20409;-70
2022/11/15 09:52:36;;;;;;;5.60;3.50;;;12.10;99.90;;;;;;4951878;28;20502;-69
2022/11/15 09:55:02;;;;;;;5.60;4.20;;;12.10;99.90;;;;;;4952409;29;20398;-70
2022/11/15 09:57:47;;;;;;;4.00;3.60;;;12.30;99.90;;;;;;4952531;29;20494;-70
2022/11/15 10:00:20;;;;;;;4.20;3.80;;;12.30;99.90;;;;;;4949579;28;20418;-70
2022/11/15 10:02:55;;;;;;;3.60;3.30;;;12.40;99.90;;;;;;4952245;29;20392;-70
2022/11/15 10:05:24;;;;;;;3.40;3.10;;;12.50;99.90;;;;;;4952507;29;20425;-70
2022/11/15 10:08:01;;;;;;;3.50;3.20;;;12.60;99.90;;;;;;4952464;29;20453;-70
2022/11/15 10:10:40;;;;;;;2.92;2.72;;;12.60;99.90;;;;;;4952176;28;20403;-70
2022/11/15 10:13:16;;;;;;;4.15;2.70;;;12.50;99.90;;;;;;4952015;29;20393;-70
2022/11/15 10:15:45;;;;;;;5.32;3.10;;;12.50;99.90;;;;;;4952231;29;20390;-70
2022/11/15 10:18:30;;;;;;;3.03;2.72;;;12.60;99.90;;;;;;4952154;29;20880;-70
2022/11/15 10:20:59;;;;;;;3.50;2.70;;;12.70;99.90;;;;;;4952007;28;20490;-70
2022/11/15 10:23:32;;;;;;;3.40;2.75;;;12.70;99.90;;;;;;4951907;29;20421;-70
2022/11/15 10:25:59;;;;;;;3.00;2.70;;;12.60;99.90;;;;;;4952135;29;20398;-70
2022/11/15 10:28:29;;;;;;;3.05;2.50;;;12.60;99.90;;;;;;4954228;28;20460;-70
2022/11/15 10:31:00;;;;;;;3.65;2.70;;;12.60;99.90;;;;;;4955726;28;20390;-70
2022/11/15 10:33:33;;;;;;;4.00;2.80;;;12.60;99.90;;;;;;4950902;29;20407;-70
2022/11/15 10:36:20;;;;;;;2.85;2.30;;;12.60;99.90;;;;;;4936580;29;20395;-70
2022/11/15 10:38:48;;;;;;;2.83;2.60;;;12.60;99.90;;;;;;4936622;29;20483;-70
2022/11/15 10:41:27;;;;;;;3.35;3.05;;;12.50;99.90;;;;;;4936323;29;20419;-70
2022/11/15 10:44:07;;;;;;;3.60;3.30;;;12.60;99.90;;;;;;4936176;29;20399;-70
2022/11/15 10:46:35;;;;;;;4.70;2.90;;;12.60;99.90;;;;;;4936236;29;20477;-70
2022/11/15 10:49:18;;;;;;;3.53;3.22;;;12.70;99.90;;;;;;4936111;29;20420;-69
2022/11/15 10:51:44;;;;;;;4.50;3.28;;;12.70;99.90;;;;;;4936233;29;20403;-70
2022/11/15 10:54:11;;;;;;;3.53;2.90;;;12.70;99.90;;;;;;4935815;29;20466;-70
2022/11/15 10:56:37;;;;;;;3.60;3.00;;;12.70;99.90;;;;;;4936098;29;20391;-70
2022/11/15 10:59:03;;;;;;;4.33;3.30;;;12.70;99.90;;;;;;4936449;29;20469;-70
2022/11/15 11:01:31;;;;;;;5.30;3.10;;;12.70;99.90;;;;;;4936338;29;20419;-70
2022/11/15 11:04:01;;;;;;;5.80;3.17;;;12.70;99.90;;;;;;4935718;29;20893;-69
2022/11/15 11:06:26;;;;;;;3.60;3.10;;;12.60;99.90;;;;;;4936040;29;20875;-70
2022/11/15 11:09:18;;;;;;;4.00;2.92;;;12.70;99.90;;;;;;4936002;29;20458;-71
2022/11/15 11:11:46;;;;;;;4.88;3.70;;;12.70;99.90;;;;;;4935950;29;20398;-70
2022/11/15 11:14:27;;;;;;;4.70;3.40;;;12.70;99.90;;;;;;4935871;29;20933;-70
2022/11/15 11:17:34;;;;;;;5.75;3.50;;;12.80;99.90;;;;;;4935799;29;20798;-70
2022/11/15 11:20:30;;;;;;;3.03;2.72;;;12.90;99.90;;;;;;4935692;29;20494;-70
2022/11/15 11:23:15;;;;;;;5.68;3.10;;;12.90;99.90;;;;;;4935379;29;20400;-70
2022/11/15 11:25:52;;;;;;;3.93;3.00;;;12.90;99.90;;;;;;4935614;29;20976;-70
2022/11/15 11:28:28;;;;;;;4.10;3.13;;;13.00;99.90;;;;;;4935663;29;20972;-70
2022/11/15 11:31:05;;;;;;;4.00;3.08;;;13.10;99.90;;;;;;4935368;29;20438;-70
2022/11/15 11:33:48;;;;;;;3.60;3.00;;;13.10;99.90;;;;;;4940352;29;20464;-70
2022/11/15 11:36:44;;;;;;;3.13;2.70;;;13.20;99.90;;;;;;4954504;29;20718;-70
2022/11/15 11:39:44;;;;;;;3.37;2.37;;;13.20;99.90;;;;;;4953350;28;20397;-70
2022/11/15 11:42:49;;;;;;;2.30;1.80;;;13.40;99.90;;;;;;4951527;29;20446;-70
2022/11/15 11:45:36;;;;;;;2.20;2.00;;;13.50;99.90;;;;;;4954672;29;20409;-70
2022/11/15 11:48:20;;;;;;;2.00;1.80;;;13.60;99.90;;;;;;4954297;29;20386;-68
2022/11/15 11:50:47;;;;;;;3.20;1.90;;;13.70;99.90;;;;;;4953976;28;20772;-71
2022/11/15 11:53:26;;;;;;;2.20;2.00;;;13.80;99.90;;;;;;4953696;29;20473;-69
2022/11/15 11:55:56;;;;;;;2.28;1.63;;;13.90;99.90;;;;;;4954355;29;20518;-69
2022/11/15 11:58:35;;;;;;;1.90;1.70;;;13.90;99.90;;;;;;4954292;29;20394;-69
2022/11/15 12:01:20;;;;;;;2.17;1.70;;;13.90;99.90;;;;;;4954156;29;20405;-69
2022/11/15 12:03:57;;;;;;;4.40;1.83;;;13.90;99.90;;;;;;4953827;29;20429;-69
2022/11/15 12:06:45;;;;;;;2.78;1.60;;;14.00;99.90;;;;;;4954064;29;20757;-69
2022/11/15 12:09:35;;;;;;;2.40;2.20;;;13.90;99.90;;;;;;4953839;28;20378;-68
2022/11/15 12:12:18;;;;;;;3.00;1.90;;;14.00;99.90;;;;;;4953819;29;20394;-68
2022/11/15 12:15:09;;;;;;;2.88;1.80;;;13.90;99.90;;;;;;4953666;29;20394;-72
2022/11/15 12:17:36;;;;;;;1.70;1.60;;;13.90;99.90;;;;;;4954459;28;20529;-70
2022/11/15 12:20:25;;;;;;;1.90;1.80;;;13.90;99.90;;;;;;4953674;28;20406;-68
2022/11/15 12:23:16;;;;;;;2.42;1.90;;;14.00;99.90;;;;;;4953690;29;20381;-70
2022/11/15 12:25:50;;;;;;;2.20;2.00;;;14.00;99.90;;;;;;4953680;28;20881;-68
2022/11/15 12:28:18;;;;;;;2.50;1.60;;;13.90;99.90;;;;;;4953591;29;20860;-68
2022/11/15 12:30:54;;;;;;;1.58;1.42;;;14.00;99.90;;;;;;4953715;28;20389;-69
2022/11/15 12:33:40;;;;;;;2.93;1.63;;;13.90;99.90;;;;;;4949228;29;20408;-69
2022/11/15 12:36:38;;;;;;;2.00;1.55;;;14.00;99.90;;;;;;4934302;28;20395;-69
2022/11/15 12:39:10;;;;;;;1.77;1.38;;;13.90;99.90;;;;;;4934800;29;20387;-68
2022/11/15 12:41:40;;;;;;;2.53;1.45;;;13.90;99.90;;;;;;4934706;29;20415;-69
2022/11/15 12:44:12;;;;;;;1.55;1.30;;;14.00;99.90;;;;;;4934434;29;20422;-69
2022/11/15 12:46:40;;;;;;;1.75;1.60;;;14.00;99.90;;;;;;4934151;29;20739;-70
2022/11/15 12:49:28;;;;;;;1.70;1.40;;;13.90;99.90;;;;;;4934078;29;20399;-70
2022/11/15 12:51:59;;;;;;;2.00;1.40;;;13.90;99.90;;;;;;4933683;29;20419;-70
2022/11/15 12:54:24;;;;;;;1.50;1.40;;;13.90;99.90;;;;;;4933611;29;20474;-70
2022/11/15 12:57:02;;;;;;;1.90;1.37;;;13.90;99.90;;;;;;4934129;29;20516;-70
2022/11/15 12:59:49;;;;;;;1.80;1.40;;;14.00;99.90;;;;;;4934153;29;20396;-70
2022/11/15 13:02:34;;;;;;;2.33;1.45;;;13.90;99.90;;;;;;4934003;29;20422;-70
2022/11/15 13:05:22;;;;;;;2.10;1.80;;;13.70;99.90;;;;;;4933850;29;20486;-70
2022/11/15 13:07:47;;;;;;;2.00;1.50;;;13.70;99.90;;;;;;4933881;29;20391;-70
2022/11/15 13:10:13;;;;;;;2.25;1.98;;;13.60;99.90;;;;;;4933796;29;20400;-70
2022/11/15 13:12:40;;;;;;;1.73;1.63;;;13.60;99.90;;;;;;4933648;29;20383;-70
2022/11/15 13:15:12;;;;;;;2.20;1.70;;;13.60;99.90;;;;;;4948489;29;20407;-70
2022/11/15 13:17:48;;;;;;;2.40;1.40;;;13.60;99.90;;;;;;4933740;29;20391;-70
2022/11/15 13:20:14;;;;;;;2.80;1.47;;;13.50;99.90;;;;;;4933554;29;20424;-70
2022/11/15 13:23:00;;;;;;;2.00;1.70;;;13.40;99.90;;;;;;4933421;29;20418;-70